createdAt,value
2018-10-01T00:02:25.092Z,4.90
2018-10-01T00:04:53.628Z,4.30
2018-10-01T00:07:22.274Z,4.63
2018-10-01T00:09:50.892Z,4.73
2018-10-01T00:12:19.351Z,4.30
2018-10-01T00:14:47.905Z,4.37
2018-10-01T00:17:16.334Z,5.70
2018-10-01T00:19:50.127Z,4.53
2018-10-01T00:22:23.998Z,4.73
2018-10-01T00:24:52.541Z,5.87
2018-10-01T00:27:21.009Z,5.10
2018-10-01T00:29:49.513Z,5.33
2018-10-01T00:32:17.964Z,5.47
2018-10-01T00:34:46.573Z,5.17
2018-10-01T00:37:15.032Z,5.07
2018-10-01T00:39:43.564Z,6.83
2018-10-01T00:42:12.005Z,6.13
2018-10-01T00:44:40.844Z,5.93
2018-10-01T00:47:09.736Z,6.80
2018-10-01T00:49:38.262Z,6.40
2018-10-01T00:52:06.961Z,6.20
2018-10-01T00:54:35.441Z,6.40
2018-10-01T00:57:03.920Z,6.83
2018-10-01T00:59:32.517Z,7.20
2018-10-01T01:02:02.453Z,5.40
2018-10-01T01:04:31.001Z,7.80
2018-10-01T01:06:59.634Z,7.53
2018-10-01T01:09:28.310Z,7.33
2018-10-01T01:11:57.108Z,7.20
2018-10-01T01:14:25.967Z,7.30
2018-10-01T01:16:54.628Z,7.90
2018-10-01T01:19:23.233Z,6.90
2018-10-01T01:21:51.652Z,7.63
2018-10-01T01:24:20.173Z,7.63
2018-10-01T01:26:48.664Z,8.17
2018-10-01T01:29:17.127Z,7.27
2018-10-01T01:31:45.605Z,8.80
2018-10-01T01:34:14.105Z,7.23
2018-10-01T01:36:42.581Z,7.37
2018-10-01T01:39:11.564Z,7.40
2018-10-01T01:41:40.196Z,7.90
2018-10-01T01:44:08.837Z,8.87
2018-10-01T01:46:37.517Z,8.70
2018-10-01T01:49:06.534Z,8.33
2018-10-01T01:51:35.040Z,10.50
2018-10-01T01:54:03.524Z,10.37
2018-10-01T01:56:32.184Z,9.80
2018-10-01T01:59:00.750Z,10.50
2018-10-01T02:01:29.524Z,10.50
2018-10-01T02:03:58.270Z,12.30
2018-10-01T02:06:27.005Z,9.97
2018-10-01T02:08:55.544Z,11.23
2018-10-01T02:11:24.270Z,10.73
2018-10-01T02:13:52.783Z,10.50
2018-10-01T02:16:21.383Z,10.20
2018-10-01T02:18:49.856Z,9.93
2018-10-01T02:21:18.304Z,10.60
2018-10-01T02:23:46.769Z,9.70
2018-10-01T02:26:15.247Z,11.07
2018-10-01T02:28:44.012Z,9.73
2018-10-01T02:31:12.496Z,9.53
2018-10-01T02:33:40.957Z,9.30
2018-10-01T02:36:09.408Z,9.90
2018-10-01T02:38:37.996Z,9.60
2018-10-01T02:41:06.785Z,10.87
2018-10-01T02:43:35.304Z,10.90
2018-10-01T02:46:05.893Z,10.33
2018-10-01T02:48:35.044Z,10.30
2018-10-01T02:51:04.357Z,9.77
2018-10-01T02:53:38.489Z,9.23
2018-10-01T02:56:07.330Z,9.80
2018-10-01T02:58:35.969Z,10.27
2018-10-01T03:01:04.679Z,9.07
2018-10-01T03:03:33.251Z,11.10
2018-10-01T03:06:02.237Z,10.47
2018-10-01T03:08:30.777Z,11.00
2018-10-01T03:10:59.971Z,10.53
2018-10-01T03:13:28.654Z,10.28
2018-10-01T03:15:57.209Z,9.87
2018-10-01T03:18:25.733Z,10.82
2018-10-01T03:20:54.372Z,11.57
2018-10-01T03:23:22.741Z,10.70
2018-10-01T03:25:51.465Z,11.53
2018-10-01T03:28:19.948Z,11.23
2018-10-01T03:30:48.437Z,10.13
2018-10-01T03:33:18.352Z,9.83
2018-10-01T03:35:46.824Z,9.67
2018-10-01T03:38:15.358Z,10.77
2018-10-01T03:40:43.925Z,10.20
2018-10-01T03:43:12.408Z,9.90
2018-10-01T03:45:40.849Z,11.10
2018-10-01T03:48:09.382Z,10.20
2018-10-01T03:50:37.894Z,11.23
2018-10-01T03:53:06.355Z,10.50
2018-10-01T03:55:35.046Z,11.20
2018-10-01T03:58:04.266Z,10.67
2018-10-01T04:00:32.858Z,11.10
2018-10-01T04:03:01.861Z,10.57
2018-10-01T04:05:30.338Z,11.70
2018-10-01T04:07:59.048Z,11.30
2018-10-01T04:10:27.691Z,11.30
2018-10-01T04:12:56.293Z,11.43
2018-10-01T04:15:25.767Z,12.90
2018-10-01T04:17:54.353Z,12.30
2018-10-01T04:20:22.830Z,12.67
2018-10-01T04:22:51.337Z,12.50
2018-10-01T04:25:19.754Z,12.43
2018-10-01T04:27:48.228Z,13.93
2018-10-01T04:30:16.706Z,14.30
2018-10-01T04:32:45.217Z,14.17
2018-10-01T04:35:16.233Z,13.13
2018-10-01T04:37:44.754Z,15.03
2018-10-01T04:40:14.821Z,14.33
2018-10-01T04:42:43.378Z,13.77
2018-10-01T04:45:11.898Z,15.13
2018-10-01T04:47:40.445Z,16.02
2018-10-01T04:50:08.913Z,17.90
2018-10-01T04:52:37.734Z,15.60
2018-10-01T04:55:06.224Z,17.40
2018-10-01T04:57:34.787Z,16.87
2018-10-01T05:00:04.066Z,17.87
2018-10-01T05:02:32.590Z,17.37
2018-10-01T05:05:01.477Z,16.37
2018-10-01T05:07:30.377Z,17.77
2018-10-01T05:10:00.962Z,17.40
2018-10-01T05:12:29.584Z,16.50
2018-10-01T05:14:58.324Z,16.37
2018-10-01T05:17:26.894Z,14.70
2018-10-01T05:19:55.356Z,15.87
2018-10-01T05:22:23.885Z,15.27
2018-10-01T05:24:52.496Z,15.90
2018-10-01T05:27:20.973Z,14.87
2018-10-01T05:29:49.694Z,14.93
2018-10-01T05:32:18.518Z,16.80
2018-10-01T05:34:46.937Z,15.97
2018-10-01T05:37:15.377Z,15.63
2018-10-01T05:39:43.833Z,15.77
2018-10-01T05:42:12.485Z,15.33
2018-10-01T05:44:41.189Z,14.63
2018-10-01T05:47:09.945Z,14.73
2018-10-01T05:49:38.491Z,15.27
2018-10-01T05:52:07.030Z,15.47
2018-10-01T05:54:35.655Z,14.40
2018-10-01T05:57:04.160Z,14.83
2018-10-01T05:59:32.675Z,14.83
2018-10-01T06:02:02.939Z,15.30
2018-10-01T06:04:31.659Z,14.90
2018-10-01T06:07:02.241Z,16.53
2018-10-01T06:09:30.925Z,16.77
2018-10-01T06:11:59.562Z,17.10
2018-10-01T06:14:28.351Z,17.67
2018-10-01T06:16:56.956Z,16.47
2018-10-01T06:19:26.490Z,15.97
2018-10-01T06:21:56.363Z,16.50
2018-10-01T06:24:28.801Z,17.10
2018-10-01T06:26:57.670Z,14.97
2018-10-01T06:29:26.323Z,15.60
2018-10-01T06:31:55.494Z,16.27
2018-10-01T06:34:24.985Z,16.50
2018-10-01T06:36:53.761Z,15.77
2018-10-01T06:39:22.543Z,16.07
2018-10-01T06:41:51.474Z,16.00
2018-10-01T06:44:20.125Z,17.47
2018-10-01T06:46:48.545Z,17.20
2018-10-01T06:49:17.235Z,16.13
2018-10-01T06:51:45.685Z,16.23
2018-10-01T06:54:14.472Z,16.23
2018-10-01T06:56:43.193Z,15.40
2018-10-01T06:59:11.999Z,15.23
2018-10-01T07:01:40.782Z,15.00
2018-10-01T07:04:09.585Z,15.53
2018-10-01T07:06:38.254Z,17.17
2018-10-01T07:09:09.201Z,16.43
2018-10-01T07:11:38.617Z,15.57
2018-10-01T07:14:07.522Z,16.30
2018-10-01T07:16:36.778Z,15.53
2018-10-01T07:19:05.465Z,16.27
2018-10-01T07:21:34.362Z,13.90
2018-10-01T07:24:03.527Z,13.77
2018-10-01T07:26:32.487Z,14.10
2018-10-01T07:29:01.243Z,13.47
2018-10-01T07:31:30.261Z,14.00
2018-10-01T07:33:59.263Z,13.00
2018-10-01T07:36:54.501Z,12.00
2018-10-01T07:39:23.426Z,11.90
2018-10-01T07:41:52.328Z,13.60
2018-10-01T07:44:20.898Z,13.10
2018-10-01T07:46:49.350Z,14.00
2018-10-01T07:49:17.876Z,12.87
2018-10-01T07:51:46.438Z,12.03
2018-10-01T07:54:15.159Z,13.10
2018-10-01T07:56:43.629Z,12.60
2018-10-01T07:59:12.083Z,12.07
2018-10-01T08:01:40.534Z,11.60
2018-10-01T08:04:09.059Z,11.10
2018-10-01T08:06:37.563Z,10.20
2018-10-01T08:09:08.233Z,10.77
2018-10-01T08:11:36.740Z,10.73
2018-10-01T08:14:05.523Z,9.10
2018-10-01T08:16:34.075Z,8.43
2018-10-01T08:19:02.740Z,8.63
2018-10-01T08:21:31.325Z,8.30
2018-10-01T08:24:00.006Z,8.20
2018-10-01T08:26:28.767Z,8.13
2018-10-01T08:28:57.384Z,7.93
2018-10-01T08:31:25.786Z,6.50
2018-10-01T08:33:54.339Z,5.53
2018-10-01T08:36:22.977Z,5.93
2018-10-01T08:38:51.552Z,5.10
2018-10-01T08:41:19.979Z,4.67
2018-10-01T08:43:48.518Z,5.03
2018-10-01T08:46:17.040Z,3.97
2018-10-01T08:48:50.834Z,4.00
2018-10-01T08:51:23.289Z,4.27
2018-10-01T08:54:56.530Z,4.27
2018-10-01T08:57:25.035Z,4.10
2018-10-01T08:59:53.517Z,4.13
2018-10-01T09:02:22.102Z,4.40
2018-10-01T09:04:50.601Z,4.83
2018-10-01T09:07:19.052Z,4.80
2018-10-01T09:09:47.537Z,4.30
2018-10-01T09:12:16.002Z,4.63
2018-10-01T09:14:44.651Z,3.90
2018-10-01T09:17:12.973Z,3.60
2018-10-01T09:19:41.567Z,4.13
2018-10-01T09:22:10.547Z,3.30
2018-10-01T09:24:39.251Z,3.90
2018-10-01T09:27:07.818Z,3.73
2018-10-01T09:29:36.501Z,3.90
2018-10-01T09:32:05.399Z,3.70
2018-10-01T09:34:35.442Z,4.33
2018-10-01T09:37:04.359Z,4.80
2018-10-01T09:39:33.460Z,5.00
2018-10-01T09:42:02.090Z,5.20
2018-10-01T09:44:30.569Z,5.03
2018-10-01T09:46:59.220Z,4.63
2018-10-01T09:49:27.782Z,4.87
2018-10-01T09:51:56.517Z,3.97
2018-10-01T09:54:24.981Z,4.10
2018-10-01T09:56:53.809Z,3.97
2018-10-01T09:59:22.240Z,4.07
2018-10-01T10:01:53.585Z,4.43
2018-10-01T10:04:22.039Z,3.40
2018-10-01T10:06:50.587Z,4.50
2018-10-01T10:09:19.033Z,6.70
2018-10-01T10:11:47.599Z,4.07
2018-10-01T10:14:16.197Z,4.40
2018-10-01T10:16:44.784Z,4.63
2018-10-01T10:19:13.130Z,4.20
2018-10-01T10:21:41.650Z,4.90
2018-10-01T10:24:10.139Z,4.43
2018-10-01T10:26:38.597Z,4.80
2018-10-01T10:29:07.080Z,3.47
2018-10-01T10:31:35.620Z,4.63
2018-10-01T10:34:04.104Z,4.87
2018-10-01T10:36:32.632Z,4.17
2018-10-01T10:39:01.185Z,3.60
2018-10-01T10:41:29.776Z,4.00
2018-10-01T10:43:58.312Z,3.60
2018-10-01T10:46:27.849Z,3.77
2018-10-01T10:48:56.401Z,3.70
2018-10-01T10:51:25.080Z,3.43
2018-10-01T10:53:53.653Z,4.37
2018-10-01T10:56:22.253Z,4.10
2018-10-01T10:58:50.808Z,4.33
2018-10-01T11:01:19.292Z,4.10
2018-10-01T11:03:48.334Z,4.43
2018-10-01T11:06:16.898Z,4.80
2018-10-01T11:08:45.446Z,4.37
2018-10-01T11:11:14.012Z,4.50
2018-10-01T11:13:42.637Z,3.27
2018-10-01T11:16:11.097Z,3.23
2018-10-01T11:18:40.438Z,3.80
2018-10-01T11:21:09.137Z,3.50
2018-10-01T11:23:37.623Z,3.33
2018-10-01T11:26:06.140Z,2.70
2018-10-01T11:28:35.319Z,3.00
2018-10-01T11:31:03.904Z,2.47
2018-10-01T11:33:32.377Z,2.50
2018-10-01T11:36:01.050Z,3.00
2018-10-01T11:38:29.879Z,2.50
2018-10-01T11:40:58.467Z,2.53
2018-10-01T11:43:27.460Z,2.60
2018-10-01T11:45:57.114Z,2.97
2018-10-01T11:48:25.888Z,3.00
2018-10-01T11:50:55.065Z,2.83
2018-10-01T11:53:23.936Z,2.60
2018-10-01T11:55:53.093Z,3.70
2018-10-01T11:58:21.811Z,3.53
2018-10-01T12:00:50.942Z,2.10
2018-10-01T12:03:19.723Z,2.30
2018-10-01T12:05:48.385Z,2.40
2018-10-01T12:08:17.069Z,2.00
2018-10-01T12:10:45.912Z,2.10
2018-10-01T12:13:15.613Z,1.90
2018-10-01T12:15:44.215Z,2.00
2018-10-01T12:18:13.246Z,2.33
2018-10-01T12:20:41.691Z,2.37
2018-10-01T12:23:10.300Z,2.23
2018-10-01T12:25:38.848Z,2.20
2018-10-01T12:28:07.820Z,4.60
2018-10-01T12:30:36.322Z,2.00
2018-10-01T12:33:05.025Z,2.90
2018-10-01T12:35:33.435Z,2.10
2018-10-01T12:38:02.104Z,1.80
2018-10-01T12:40:30.719Z,2.03
2018-10-01T12:42:59.921Z,1.50
2018-10-01T12:45:28.680Z,1.67
2018-10-01T12:47:57.481Z,1.30
2018-10-01T12:50:26.281Z,1.60
2018-10-01T12:52:54.784Z,1.77
2018-10-01T12:55:23.236Z,2.00
2018-10-01T12:57:51.696Z,2.50
2018-10-01T13:00:20.536Z,1.80
2018-10-01T13:02:49.029Z,1.53
2018-10-01T13:05:17.666Z,1.33
2018-10-01T13:07:46.066Z,1.70
2018-10-01T13:10:14.923Z,1.77
2018-10-01T13:12:43.532Z,1.63
2018-10-01T13:15:11.854Z,1.50
2018-10-01T13:17:40.426Z,1.30
2018-10-01T13:20:08.878Z,1.10
2018-10-01T13:22:37.724Z,1.67
2018-10-01T13:25:06.560Z,1.80
2018-10-01T13:27:35.057Z,2.00
2018-10-01T13:30:04.162Z,1.80
2018-10-01T13:32:33.003Z,2.47
2018-10-01T13:35:01.496Z,2.43
2018-10-01T13:37:30.851Z,1.80
2018-10-01T13:39:59.964Z,1.70
2018-10-01T13:42:28.693Z,1.70
2018-10-01T13:44:58.647Z,1.40
2018-10-01T13:47:27.951Z,1.67
2018-10-01T13:49:56.500Z,1.70
2018-10-01T13:52:25.061Z,1.57
2018-10-01T13:54:53.503Z,1.87
2018-10-01T13:57:22.013Z,1.60
2018-10-01T13:59:50.474Z,1.70
2018-10-01T14:02:19.067Z,1.37
2018-10-01T14:04:47.615Z,2.00
2018-10-01T14:07:16.119Z,1.70
2018-10-01T14:09:44.589Z,1.80
2018-10-01T14:12:13.164Z,1.90
2018-10-01T14:14:41.572Z,1.47
2018-10-01T14:17:10.104Z,3.00
2018-10-01T14:19:38.672Z,1.63
2018-10-01T14:22:07.199Z,1.73
2018-10-01T14:24:35.799Z,1.43
2018-10-01T14:27:05.176Z,1.30
2018-10-01T14:29:33.825Z,1.40
2018-10-01T14:32:02.369Z,1.33
2018-10-01T14:34:31.025Z,1.43
2018-10-01T14:36:59.809Z,1.93
2018-10-01T14:39:28.482Z,2.10
2018-10-01T14:41:57.393Z,1.40
2018-10-01T14:44:25.963Z,1.70
2018-10-01T14:46:54.717Z,1.80
2018-10-01T14:49:23.226Z,1.83
2018-10-01T14:51:51.786Z,1.70
2018-10-01T14:54:20.289Z,1.50
2018-10-01T14:56:55.663Z,1.67
2018-10-01T14:59:24.159Z,1.73
2018-10-01T15:01:52.646Z,1.70
2018-10-01T15:04:21.204Z,1.57
2018-10-01T15:06:49.717Z,1.87
2018-10-01T15:09:18.231Z,1.60
2018-10-01T15:11:47.070Z,2.50
2018-10-01T15:14:15.699Z,3.17
2018-10-01T15:16:44.093Z,2.40
2018-10-01T15:19:12.632Z,2.70
2018-10-01T15:21:41.143Z,2.87
2018-10-01T15:24:09.660Z,2.20
2018-10-01T15:26:38.149Z,1.80
2018-10-01T15:29:06.630Z,1.57
2018-10-01T15:31:35.193Z,1.70
2018-10-01T15:34:03.761Z,1.37
2018-10-01T15:36:32.472Z,1.30
2018-10-01T15:39:01.149Z,1.30
2018-10-01T15:41:29.813Z,1.57
2018-10-01T15:43:58.508Z,1.97
2018-10-01T15:46:27.716Z,1.50
2018-10-01T15:48:56.973Z,1.53
2018-10-01T15:51:25.423Z,1.67
2018-10-01T15:53:53.977Z,2.00
2018-10-01T15:56:22.450Z,2.90
2018-10-01T15:58:51.001Z,2.37
2018-10-01T16:01:19.416Z,1.97
2018-10-01T16:03:47.941Z,1.80
2018-10-01T16:06:16.465Z,2.53
2018-10-01T16:08:45.130Z,2.30
2018-10-01T16:11:13.749Z,2.17
2018-10-01T16:13:42.285Z,2.00
2018-10-01T16:16:10.897Z,2.20
2018-10-01T16:18:39.433Z,1.63
2018-10-01T16:21:07.987Z,2.00
2018-10-01T16:23:36.981Z,2.60
2018-10-01T16:26:05.837Z,2.30
2018-10-01T16:28:34.394Z,2.17
2018-10-01T16:31:02.885Z,2.20
2018-10-01T16:33:31.474Z,2.10
2018-10-01T16:36:01.733Z,2.30
2018-10-01T16:38:33.202Z,2.10
2018-10-01T16:41:04.660Z,2.27
2018-10-01T16:43:33.463Z,2.30
2018-10-01T16:46:02.094Z,1.90
2018-10-01T16:48:31.919Z,2.00
2018-10-01T16:51:01.041Z,1.87
2018-10-01T16:53:31.125Z,2.43
2018-10-01T16:56:00.325Z,1.43
2018-10-01T16:58:30.219Z,1.50
2018-10-01T17:01:00.592Z,1.80
2018-10-01T17:03:30.030Z,2.30
2018-10-01T17:05:59.705Z,2.50
2018-10-01T17:08:30.379Z,1.90
2018-10-01T17:10:59.750Z,2.00
2018-10-01T17:13:28.736Z,2.27
2018-10-01T17:15:57.441Z,2.30
2018-10-01T17:18:26.254Z,2.40
2018-10-01T17:20:55.043Z,2.37
2018-10-01T17:23:23.575Z,2.30
2018-10-01T17:25:52.135Z,2.50
2018-10-01T17:28:20.630Z,2.37
2018-10-01T17:30:49.181Z,2.87
2018-10-01T17:33:17.772Z,3.80
2018-10-01T17:35:46.303Z,3.30
2018-10-01T17:38:14.813Z,2.70
2018-10-01T17:40:43.460Z,2.20
2018-10-01T17:43:11.937Z,1.90
2018-10-01T17:45:40.704Z,1.50
2018-10-01T17:48:09.755Z,1.27
2018-10-01T17:50:38.673Z,1.50
2018-10-01T17:53:07.832Z,1.50
2018-10-01T17:55:36.727Z,1.60
2018-10-01T17:58:05.712Z,1.50
2018-10-01T18:00:35.007Z,1.80
2018-10-01T18:03:04.521Z,1.60
2018-10-01T18:05:34.098Z,1.90
2018-10-01T18:08:03.561Z,1.70
2018-10-01T18:10:32.285Z,1.90
2018-10-01T18:13:01.054Z,1.27
2018-10-01T18:15:29.884Z,1.80
2018-10-01T18:17:59.213Z,2.10
2018-10-01T18:20:27.816Z,1.67
2018-10-01T18:22:56.357Z,1.80
2018-10-01T18:25:24.912Z,1.77
2018-10-01T18:27:53.361Z,2.20
2018-10-01T18:30:21.917Z,1.90
2018-10-01T18:32:50.367Z,1.63
2018-10-01T18:35:18.956Z,1.70
2018-10-01T18:37:47.556Z,1.85
2018-10-01T18:40:16.064Z,1.90
2018-10-01T18:42:44.542Z,1.67
2018-10-01T18:45:13.138Z,1.65
2018-10-01T18:47:41.680Z,1.70
2018-10-01T18:50:10.155Z,2.20
2018-10-01T18:52:41.760Z,1.80
2018-10-01T18:55:11.274Z,2.23
2018-10-01T18:57:39.846Z,2.30
2018-10-01T19:00:09.077Z,1.60
2018-10-01T19:02:37.554Z,1.92
2018-10-01T19:05:07.050Z,2.33
2018-10-01T19:07:35.634Z,2.33
2018-10-01T19:10:05.066Z,2.05
2018-10-01T19:12:33.747Z,2.02
2018-10-01T19:15:02.957Z,2.10
2018-10-01T19:17:31.696Z,2.65
2018-10-01T19:20:00.498Z,2.15
2018-10-01T19:22:29.580Z,2.47
2018-10-01T19:24:59.708Z,1.90
2018-10-01T19:27:28.653Z,1.90
2018-10-01T19:29:57.325Z,1.70
2018-10-01T19:32:25.920Z,1.75
2018-10-01T19:34:54.429Z,1.52
2018-10-01T19:37:23.101Z,1.60
2018-10-01T19:39:51.558Z,1.77
2018-10-01T19:42:20.161Z,1.47
2018-10-01T19:44:55.454Z,1.50
2018-10-01T19:47:23.990Z,1.50
2018-10-01T19:49:52.547Z,1.55
2018-10-01T19:52:21.093Z,1.20
2018-10-01T19:54:49.881Z,1.40
2018-10-01T19:57:18.493Z,1.30
2018-10-01T19:59:46.977Z,1.50
2018-10-01T20:02:15.866Z,1.87
2018-10-01T20:04:44.729Z,1.70
2018-10-01T20:07:13.371Z,1.40
2018-10-01T20:09:44.500Z,1.40
2018-10-01T20:12:14.274Z,1.40
2018-10-01T20:14:43.352Z,1.70
2018-10-01T20:17:12.159Z,1.50
2018-10-01T20:19:40.766Z,1.45
2018-10-01T20:22:12.271Z,1.92
2018-10-01T20:24:41.778Z,1.50
2018-10-01T20:27:10.426Z,1.52
2018-10-01T20:29:39.384Z,1.70
2018-10-01T20:32:07.943Z,1.72
2018-10-01T20:34:36.377Z,1.95
2018-10-01T20:37:04.963Z,1.90
2018-10-01T20:39:34.013Z,2.17
2018-10-01T20:42:02.782Z,1.95
2018-10-01T20:44:31.405Z,2.02
2018-10-01T20:46:59.998Z,2.70
2018-10-01T20:49:28.936Z,2.10
2018-10-01T20:51:57.691Z,2.20
2018-10-01T20:54:26.200Z,2.25
2018-10-01T20:56:54.846Z,3.08
2018-10-01T20:59:24.029Z,3.55
2018-10-01T21:01:52.533Z,3.67
2018-10-01T21:04:21.061Z,3.25
2018-10-01T21:06:49.953Z,3.35
2018-10-01T21:09:18.428Z,4.05
2018-10-01T21:11:46.881Z,3.10
2018-10-01T21:14:15.462Z,3.10
2018-10-01T21:16:43.940Z,4.00
2018-10-01T21:19:12.429Z,3.50
2018-10-01T21:21:40.924Z,3.05
2018-10-01T21:24:09.520Z,3.15
2018-10-01T21:26:38.172Z,3.35
2018-10-01T21:29:06.837Z,2.35
2018-10-01T21:31:35.300Z,3.22
2018-10-01T21:34:03.936Z,3.22
2018-10-01T21:36:32.492Z,3.00
2018-10-01T21:39:02.200Z,2.60
2018-10-01T21:41:30.797Z,2.75
2018-10-01T21:43:59.799Z,2.62
2018-10-01T21:46:28.286Z,2.30
2018-10-01T21:48:56.858Z,2.80
2018-10-01T21:51:26.074Z,3.27
2018-10-01T21:53:54.643Z,2.70
2018-10-01T21:56:23.150Z,3.30
2018-10-01T21:58:51.742Z,5.42
2018-10-01T22:01:25.553Z,3.05
2018-10-01T22:03:55.501Z,2.85
2018-10-01T22:06:24.072Z,3.25
2018-10-01T22:08:52.724Z,3.25
2018-10-01T22:11:21.227Z,3.05
2018-10-01T22:13:49.728Z,4.00
2018-10-01T22:16:18.298Z,3.90
2018-10-01T22:18:46.836Z,3.52
2018-10-01T22:21:15.372Z,3.85
2018-10-01T22:23:43.927Z,3.47
2018-10-01T22:26:12.474Z,2.92
2018-10-01T22:28:41.798Z,3.22
2018-10-01T22:31:10.276Z,4.03
2018-10-01T22:33:38.880Z,4.17
2018-10-01T22:36:07.401Z,3.45
2018-10-01T22:38:35.902Z,3.98
2018-10-01T22:41:04.410Z,4.55
2018-10-01T22:43:33.057Z,4.17
2018-10-01T22:46:01.607Z,4.53
2018-10-01T22:48:30.099Z,4.72
2018-10-01T22:50:58.861Z,3.52
2018-10-01T22:53:27.472Z,4.90
2018-10-01T22:55:55.963Z,3.67
2018-10-01T22:58:24.612Z,3.80
2018-10-01T23:00:53.165Z,3.87
2018-10-01T23:03:21.742Z,4.12
2018-10-01T23:05:50.341Z,3.62
2018-10-01T23:08:18.972Z,3.35
2018-10-01T23:10:47.526Z,4.17
2018-10-01T23:13:15.965Z,4.33
2018-10-01T23:15:44.506Z,4.03
2018-10-01T23:18:13.040Z,4.17
2018-10-01T23:20:41.606Z,3.60
2018-10-01T23:23:10.060Z,4.17
2018-10-01T23:25:38.844Z,3.87
2018-10-01T23:28:07.459Z,3.67
2018-10-01T23:30:35.995Z,3.80
2018-10-01T23:33:04.537Z,3.35
2018-10-01T23:35:33.303Z,3.70
2018-10-01T23:38:01.973Z,4.55
2018-10-01T23:40:30.710Z,4.47
2018-10-01T23:42:59.360Z,4.40
2018-10-01T23:45:29.848Z,4.62
2018-10-01T23:47:58.679Z,3.90
2018-10-01T23:50:27.480Z,3.77
2018-10-01T23:52:56.252Z,3.52
2018-10-01T23:55:25.713Z,3.92
2018-10-01T23:57:54.297Z,3.80
